createdAt,value
2023-03-26T00:02:40.071Z,3.30
2023-03-26T00:08:03.099Z,3.33
2023-03-26T00:13:24.896Z,3.30
2023-03-26T00:18:47.707Z,3.10
2023-03-26T00:24:15.506Z,3.30
2023-03-26T00:29:37.471Z,3.90
2023-03-26T00:35:01.145Z,3.20
2023-03-26T00:40:23.840Z,3.25
2023-03-26T00:45:54.728Z,3.72
2023-03-26T00:51:18.392Z,3.17
2023-03-26T00:56:40.346Z,2.42
2023-03-26T01:02:02.692Z,2.78
2023-03-26T01:07:29.281Z,2.75
2023-03-26T01:12:51.360Z,2.15
2023-03-26T01:18:14.097Z,2.55
2023-03-26T01:23:49.603Z,3.00
2023-03-26T01:29:39.502Z,3.07
2023-03-26T01:35:26.157Z,3.30
2023-03-26T01:46:19.630Z,2.85
2023-03-26T01:51:42.871Z,2.88
2023-03-26T01:57:07.633Z,3.45
2023-03-26T02:02:56.009Z,2.40
2023-03-26T02:08:24.694Z,3.08
2023-03-26T02:13:47.343Z,2.20
2023-03-26T02:19:15.960Z,2.63
2023-03-26T02:24:38.912Z,2.45
2023-03-26T02:30:01.306Z,2.25
2023-03-26T02:35:23.242Z,2.28
2023-03-26T02:40:45.212Z,2.40
2023-03-26T02:46:07.058Z,2.45
2023-03-26T02:51:29.118Z,2.05
2023-03-26T02:56:51.038Z,2.40
2023-03-26T03:02:13.722Z,2.40
2023-03-26T03:07:38.102Z,2.00
2023-03-26T03:13:00.087Z,2.28
2023-03-26T03:18:22.192Z,2.30
2023-03-26T03:23:43.971Z,2.13
2023-03-26T03:29:05.749Z,1.80
2023-03-26T03:34:28.026Z,2.20
2023-03-26T03:39:49.842Z,1.98
2023-03-26T03:45:11.929Z,2.70
2023-03-26T03:50:35.879Z,2.30
2023-03-26T03:55:58.604Z,1.95
2023-03-26T04:01:23.010Z,1.65
2023-03-26T04:06:44.885Z,2.08
2023-03-26T04:12:07.065Z,1.42
2023-03-26T04:17:30.764Z,2.47
2023-03-26T04:22:53.030Z,2.15
2023-03-26T04:28:35.773Z,2.03
2023-03-26T04:34:06.648Z,2.03
2023-03-26T04:39:29.547Z,1.67
2023-03-26T04:44:52.564Z,1.50
2023-03-26T04:50:14.980Z,1.60
2023-03-26T04:56:16.173Z,2.00
2023-03-26T05:01:38.132Z,1.92
2023-03-26T05:07:00.151Z,2.00
2023-03-26T05:12:22.166Z,1.92
2023-03-26T05:17:44.075Z,1.88
2023-03-26T05:23:06.067Z,2.42
2023-03-26T05:28:28.509Z,1.98
2023-03-26T05:33:50.758Z,2.00
2023-03-26T05:39:14.526Z,1.80
2023-03-26T05:44:36.474Z,2.00
2023-03-26T05:49:58.198Z,1.88
2023-03-26T05:55:20.418Z,1.60
2023-03-26T06:00:42.507Z,1.55
2023-03-26T06:06:08.023Z,1.83
2023-03-26T06:16:52.359Z,1.50
2023-03-26T06:22:14.212Z,1.50
2023-03-26T06:27:36.005Z,2.00
2023-03-26T06:32:57.913Z,2.13
2023-03-26T06:38:19.701Z,2.33
2023-03-26T06:43:41.553Z,1.98
2023-03-26T06:49:03.743Z,2.03
2023-03-26T06:54:25.589Z,1.90
2023-03-26T06:59:47.447Z,2.80
2023-03-26T07:05:09.511Z,1.65
2023-03-26T07:10:31.704Z,2.10
2023-03-26T07:15:53.484Z,1.98
2023-03-26T07:21:15.891Z,1.88
2023-03-26T07:27:01.046Z,1.77
2023-03-26T07:32:28.747Z,1.55
2023-03-26T07:37:53.486Z,1.55
2023-03-26T07:43:33.990Z,1.23
2023-03-26T07:48:58.475Z,1.73
2023-03-26T07:54:20.797Z,1.80
2023-03-26T07:59:59.960Z,1.40
2023-03-26T08:05:31.331Z,1.40
2023-03-26T08:11:07.481Z,1.95
2023-03-26T08:27:59.139Z,1.67
2023-03-26T08:33:23.002Z,1.63
2023-03-26T08:38:46.817Z,1.38
2023-03-26T08:44:21.775Z,1.40
2023-03-26T08:49:46.366Z,1.15
2023-03-26T08:55:40.799Z,1.47
2023-03-26T09:01:36.669Z,1.40
2023-03-26T09:07:20.064Z,0.95
2023-03-26T09:13:26.460Z,1.17
2023-03-26T09:19:07.090Z,0.80
2023-03-26T09:25:02.625Z,1.67
2023-03-26T09:30:36.431Z,1.13
2023-03-26T09:36:17.044Z,1.80
2023-03-26T09:41:52.775Z,1.38
2023-03-26T09:47:42.053Z,1.50
2023-03-26T09:53:27.149Z,1.30
2023-03-26T09:59:10.549Z,1.25
2023-03-26T10:04:51.802Z,1.25
2023-03-26T10:10:31.815Z,1.23
2023-03-26T10:16:05.878Z,1.13
2023-03-26T10:21:37.880Z,0.90
2023-03-26T10:27:30.191Z,1.05
2023-03-26T10:33:10.633Z,0.98
2023-03-26T10:38:47.325Z,0.75
2023-03-26T10:44:28.729Z,1.25
2023-03-26T10:50:17.226Z,1.10
2023-03-26T10:55:52.499Z,1.08
2023-03-26T11:01:43.445Z,1.15
2023-03-26T11:07:45.780Z,0.73
2023-03-26T11:13:35.649Z,0.88
2023-03-26T11:19:20.924Z,0.90
2023-03-26T11:25:02.032Z,0.52
2023-03-26T11:30:54.071Z,0.85
2023-03-26T11:36:24.623Z,0.50
2023-03-26T11:41:47.968Z,0.90
2023-03-26T11:47:12.515Z,0.93
2023-03-26T11:52:34.351Z,1.20
2023-03-26T11:57:59.631Z,0.77
2023-03-26T12:03:21.794Z,0.60
2023-03-26T12:08:43.720Z,0.80
2023-03-26T12:14:06.054Z,0.73
2023-03-26T12:19:34.080Z,0.70
2023-03-26T12:25:17.669Z,0.57
2023-03-26T12:30:42.596Z,0.70
2023-03-26T12:36:26.953Z,0.50
2023-03-26T12:43:40.557Z,0.50
2023-03-26T12:47:59.217Z,0.50
2023-03-26T12:53:53.471Z,0.70
2023-03-26T12:59:26.228Z,0.82
2023-03-26T13:05:05.508Z,0.40
2023-03-26T13:10:59.161Z,0.50
2023-03-26T13:16:56.760Z,1.23
2023-03-26T13:22:41.496Z,0.47
2023-03-26T13:28:18.215Z,0.65
2023-03-26T13:34:04.322Z,0.60
2023-03-26T13:40:07.496Z,0.55
2023-03-26T13:45:44.068Z,0.50
2023-03-26T13:51:33.424Z,0.60
2023-03-26T13:57:21.811Z,0.52
2023-03-26T14:02:48.838Z,0.70
2023-03-26T14:08:32.889Z,0.30
2023-03-26T14:14:06.930Z,0.60
2023-03-26T14:19:37.493Z,0.40
2023-03-26T14:25:08.721Z,0.50
2023-03-26T14:30:58.155Z,0.40
2023-03-26T14:36:59.273Z,0.47
2023-03-26T14:42:42.299Z,0.65
2023-03-26T14:48:38.258Z,0.40
2023-03-26T14:54:07.046Z,0.60
2023-03-26T14:59:49.470Z,0.52
2023-03-26T15:05:23.264Z,0.63
2023-03-26T15:11:22.618Z,0.77
2023-03-26T15:16:56.238Z,0.93
2023-03-26T15:22:35.938Z,0.82
2023-03-26T15:28:18.761Z,1.13
2023-03-26T15:33:40.536Z,1.40
2023-03-26T15:39:44.401Z,1.58
2023-03-26T15:45:35.634Z,1.50
2023-03-26T15:51:23.679Z,1.73
2023-03-26T15:57:31.864Z,1.30
2023-03-26T16:03:11.595Z,1.27
2023-03-26T16:08:57.911Z,1.23
2023-03-26T16:14:23.701Z,1.60
2023-03-26T16:19:50.356Z,1.70
2023-03-26T16:25:26.888Z,1.60
2023-03-26T16:31:10.602Z,1.63
2023-03-26T16:36:50.118Z,1.45
2023-03-26T16:42:47.269Z,1.58
2023-03-26T16:53:43.727Z,1.60
2023-03-26T16:59:29.913Z,1.58
2023-03-26T17:05:00.314Z,1.38
2023-03-26T17:10:41.790Z,1.67
2023-03-26T17:16:18.833Z,1.70
2023-03-26T17:22:00.174Z,1.50
2023-03-26T17:27:28.534Z,1.35
2023-03-26T17:33:00.221Z,1.40
2023-03-26T17:38:25.034Z,1.30
2023-03-26T17:43:52.551Z,2.20
2023-03-26T17:49:24.636Z,1.83
2023-03-26T17:54:50.409Z,1.60
2023-03-26T18:00:23.111Z,1.70
2023-03-26T18:05:46.622Z,1.23
2023-03-26T18:11:27.089Z,1.13
2023-03-26T18:16:53.400Z,1.52
2023-03-26T18:22:24.914Z,1.55
2023-03-26T18:27:47.230Z,1.48
2023-03-26T18:33:16.143Z,1.52
2023-03-26T18:38:39.468Z,1.42
2023-03-26T18:44:04.810Z,1.90
2023-03-26T18:49:30.110Z,1.48
2023-03-26T18:54:54.371Z,1.83
2023-03-26T19:00:23.502Z,1.35
2023-03-26T19:05:45.782Z,1.55
2023-03-26T19:11:09.856Z,1.20
2023-03-26T19:16:35.870Z,1.33
2023-03-26T19:21:59.517Z,1.50
2023-03-26T19:27:21.620Z,1.30
2023-03-26T19:32:54.144Z,1.50
2023-03-26T19:38:26.315Z,1.48
2023-03-26T19:43:50.562Z,1.25
2023-03-26T19:49:42.362Z,1.27
2023-03-26T19:55:07.055Z,1.70
2023-03-26T20:00:29.017Z,1.57
2023-03-26T20:05:50.930Z,1.95
2023-03-26T20:11:20.429Z,1.65
2023-03-26T20:16:45.433Z,1.65
2023-03-26T20:22:13.547Z,1.95
2023-03-26T20:27:35.839Z,1.85
2023-03-26T20:33:13.064Z,1.88
2023-03-26T20:38:39.392Z,1.40
2023-03-26T20:44:03.789Z,1.40
2023-03-26T20:49:29.435Z,1.48
2023-03-26T20:54:52.184Z,1.73
2023-03-26T21:00:26.332Z,1.40
2023-03-26T21:05:51.483Z,1.30
2023-03-26T21:11:31.567Z,1.33
2023-03-26T21:16:53.686Z,1.02
2023-03-26T21:22:37.835Z,1.20
2023-03-26T21:28:24.067Z,1.13
2023-03-26T21:33:49.678Z,1.55
2023-03-26T21:39:11.876Z,1.10
2023-03-26T21:44:35.067Z,1.38
2023-03-26T21:49:57.200Z,1.15
2023-03-26T21:55:20.754Z,1.40
2023-03-26T22:01:19.923Z,1.00
2023-03-26T22:06:46.408Z,1.30
2023-03-26T22:12:08.530Z,1.30
2023-03-26T22:17:30.758Z,0.70
2023-03-26T22:22:53.552Z,1.23
2023-03-26T22:28:15.621Z,1.40
2023-03-26T22:33:40.495Z,1.20
2023-03-26T22:39:02.806Z,1.17
2023-03-26T22:44:24.689Z,1.00
2023-03-26T22:49:46.820Z,1.20
2023-03-26T22:55:09.204Z,1.20
2023-03-26T23:00:32.607Z,1.10
2023-03-26T23:05:59.263Z,0.98
2023-03-26T23:11:22.214Z,0.95
2023-03-26T23:16:45.940Z,0.98
2023-03-26T23:22:09.180Z,0.75
2023-03-26T23:27:30.991Z,0.93
2023-03-26T23:32:53.266Z,1.17
2023-03-26T23:38:15.003Z,1.02
2023-03-26T23:43:36.994Z,0.60
2023-03-26T23:49:02.661Z,0.93
2023-03-26T23:54:25.935Z,0.98
2023-03-26T23:59:48.760Z,0.60
